»·PEaware :: N66BT KSBA-KBUR

N66BT :: KSBA-KBUR

FLIGHT INFORMATION

Flight Status: Arrived
Operator: Privately registered:
United States
More flights under this callsign
Pilot: John C. (19276)
Aircraft: CESSNA T210 TURBO CENTURION
(T210)
More flights by this aircraft type
Origin: KSBA Santa Barbara Mun
United States
Destination: KBUR Bob Hope-Burbank
United States
More flights between these airports :: More routes between these airports
Route: KSBA FIM KBUR
File this flight plan on PilotEdge
Remarks: CAT 8
Altitude:
(Current/Filed)
7,500ft
Speed:
(Current/Filed)
140kts
Departed: 02-Sep-18 04:08 PM
Arrived: 02-Sep-18 05:01 PM
Distance/Time
Traveled:
0nm/0:53
Distance/Time
To Go:
Arrived

Flight Plot

Page will automatically refresh every two minutes.


Map Options




Map Legend


Flown Route
Filed Route
Departure Airport
Arrival Airport
Navaid (VOR, NDB)
Fix

Horizontal Profiles

Position Reports

Time Latitude Longitude Heading Altitude Ground
Speed
02-Sep-18 15:50 34.432569 -119.835087 71 17ft 0kts
02-Sep-18 15:51 34.432569 -119.835087 71 17ft 0kts
02-Sep-18 15:52 34.432569 -119.835087 71 17ft 0kts
02-Sep-18 15:53 34.432569 -119.835087 71 17ft 0kts
02-Sep-18 15:54 34.432569 -119.835087 71 17ft 0kts
02-Sep-18 15:55 34.432569 -119.835087 71 17ft 0kts
02-Sep-18 15:56 34.432569 -119.835087 71 17ft 0kts
02-Sep-18 15:57 34.432569 -119.835087 71 17ft 0kts
02-Sep-18 15:58 34.432569 -119.835087 71 17ft 0kts
02-Sep-18 15:59 34.432569 -119.835087 71 17ft 0kts
02-Sep-18 16:00 34.430849 -119.835339 178 17ft 12kts
02-Sep-18 16:01 34.428726 -119.835250 171 17ft 0kts
02-Sep-18 16:02 34.428727 -119.835250 171 17ft 0kts
02-Sep-18 16:03 34.428727 -119.835250 171 17ft 0kts
02-Sep-18 16:04 34.428727 -119.835250 171 17ft 0kts
02-Sep-18 16:05 34.428727 -119.835250 171 17ft 0kts
02-Sep-18 16:06 34.428727 -119.835250 171 17ft 0kts
02-Sep-18 16:07 34.428727 -119.835250 171 17ft 0kts
02-Sep-18 16:08 34.428727 -119.835250 171 17ft 0kts
02-Sep-18 16:09 34.428049 -119.835216 207 17ft 13kts
02-Sep-18 16:10 34.427178 -119.857718 265 497ft 109kts
02-Sep-18 16:11 34.423179 -119.896178 259 1178ft 126kts
02-Sep-18 16:12 34.418907 -119.934133 263 1474ft 144kts
02-Sep-18 16:13 34.415977 -119.984775 266 1484ft 157kts
02-Sep-18 16:14 34.413253 -120.038192 267 1445ft 160kts
02-Sep-18 16:15 34.422597 -120.082917 352 2025ft 133kts
02-Sep-18 16:16 34.436326 -120.048793 97 2496ft 140kts
02-Sep-18 16:16 34.433917 -120.011308 93 3127ft 128kts
02-Sep-18 16:18 34.431137 -119.962382 93 4045ft 122kts
02-Sep-18 16:19 34.428876 -119.921702 93 4839ft 120kts
02-Sep-18 16:20 34.426671 -119.881476 93 5635ft 119kts
02-Sep-18 16:20 34.424851 -119.848055 93 6298ft 119kts
02-Sep-18 16:21 34.422664 -119.807768 93 7099ft 119kts
02-Sep-18 16:22 34.420312 -119.764654 93 7527ft 143kts
02-Sep-18 16:23 34.417308 -119.712323 93 7502ft 162kts
02-Sep-18 16:24 34.414108 -119.657636 93 7501ft 163kts
02-Sep-18 16:25 34.410964 -119.603818 93 7501ft 164kts
02-Sep-18 16:26 34.407773 -119.548803 93 7500ft 163kts
02-Sep-18 16:27 34.404651 -119.495127 93 7500ft 157kts
02-Sep-18 16:28 34.401619 -119.442716 93 7500ft 155kts
02-Sep-18 16:29 34.398627 -119.390691 93 7500ft 154kts
02-Sep-18 16:30 34.395687 -119.339375 94 7501ft 154kts
02-Sep-18 16:31 34.392759 -119.288123 93 7501ft 154kts
02-Sep-18 16:32 34.389799 -119.236135 93 7501ft 154kts
02-Sep-18 16:33 34.386858 -119.184328 93 7501ft 154kts
02-Sep-18 16:34 34.383928 -119.132529 93 7501ft 154kts
02-Sep-18 16:35 34.381002 -119.080772 93 7501ft 154kts
02-Sep-18 16:36 34.377953 -119.028830 95 7500ft 154kts
02-Sep-18 16:37 34.372871 -118.977230 96 7501ft 154kts
02-Sep-18 16:38 34.367728 -118.925581 96 7501ft 154kts
02-Sep-18 16:39 34.357036 -118.876288 126 7502ft 154kts
02-Sep-18 16:40 34.330287 -118.834238 127 7127ft 161kts
02-Sep-18 16:41 34.302205 -118.791614 131 6631ft 163kts
02-Sep-18 16:42 34.272294 -118.751168 131 6137ft 163kts
02-Sep-18 16:43 34.242092 -118.710393 131 5637ft 162kts
02-Sep-18 16:44 34.212114 -118.669867 130 5120ft 163kts
02-Sep-18 16:45 34.184266 -118.623386 125 3956ft 181kts
02-Sep-18 16:46 34.156716 -118.577323 125 3433ft 160kts
02-Sep-18 16:47 34.135490 -118.534917 106 3426ft 145kts
02-Sep-18 16:48 34.131165 -118.489993 85 3359ft 148kts
02-Sep-18 16:49 34.134939 -118.443714 83 2982ft 158kts
02-Sep-18 16:50 34.138462 -118.399040 84 2772ft 152kts
02-Sep-18 16:51 34.140622 -118.357563 87 2917ft 146kts
02-Sep-18 16:52 34.140580 -118.318435 93 2951ft 149kts
02-Sep-18 16:53 34.136188 -118.279529 100 2970ft 151kts
02-Sep-18 16:54 34.129484 -118.242743 91 3089ft 146kts
02-Sep-18 16:55 34.140991 -118.259170 266 2501ft 155kts
02-Sep-18 16:56 34.146958 -118.297972 317 2325ft 150kts
02-Sep-18 16:57 34.168727 -118.322272 316 1838ft 126kts
02-Sep-18 16:58 34.185284 -118.347301 299 1645ft 114kts
02-Sep-18 16:59 34.188393 -118.373994 270 1402ft 83kts
02-Sep-18 17:00 34.197461 -118.382858 68 1119ft 82kts
02-Sep-18 17:01 34.197811 -118.363681 92 781ft 57kts
02-Sep-18 17:02 34.197084 -118.360294 177 781ft 0kts
02-Sep-18 17:03 34.196827 -118.362998 272 781ft 11kts
02-Sep-18 17:04 34.196217 -118.365507 116 781ft 2kts
02-Sep-18 17:17 34.432569 -119.835087 71 17ft 0kts

Navigation Log

Ident Type
1. KSBA Airport
2. FIM Navaid
3. KBUR Airport